Hovedside
METAR-TAF:

METAR-TAF

Lufthavner :

Tunis, Tunisia

breddegrad: 36-50N, lengdegrad: 010-14E, høyde over havet: 3 m

Gjeldene værobservasjon

Denne rapporten ble laget for 22 minutter siden, klokken 04:30 UTC
Flau vind
Temperatur 20°C
Luftfuktighet 94%
Trykk 1017 hPa
Sikt 10 km eller mer
Få skyer i en høyde av 2600 ft

METAR: DTTA 210430Z 00000KT 9999 FEW026 20/19 Q1017 NOSIG

Tid: 05:52 (04:52 UTC)

Varsel

Denne rapporten ble laget for 5 timer og 34 minutter siden, klokken 23:18 UTC
Varsel gyldig fra 21. klokken 00 UTC til 21. klokken 24 UTC
Vind 3 kt fra skiftende retning
Sikt: 8000 m
Få skyer i en høyde av 2600 ft

TAF: DTTA 202318Z 2100/2124 VRB03KT 8000 FEW026

Værobservasjoner og værvarsel for over 4000 flyplasser (METAR- og TAF-rapporter).

Tilgjengelige stasjoner er representert av de røde og gule prikkene på kartet.

Hold musepekeren over prikken for å se navnet på stasjonen.

Klikk så for å se værobservasjoner og -varsler.

For å forandre kartet kan du klikke på den grønne knappen med svart kryss for å zoome inn, på den grønne knappen med strek for å zoome ut, eller på de grønne pilene for å se tilstøtende kart.


METAR-TAF: